• Join FlightAware (Why Join?)
  • Login
  • US Flag 
05:13PM EDT


 

Airport Tracker/Info


-or-


 

Live Flight TrackerFlight Track Log ✈ TUS8476 ✈ 12-May-2013 ✈ SKBO / BOG - KMIA

Flight Track Log - Related Links

Times and Time Zones

All times are in EDT time to prevent confusion due to time zone crossing. See the TUS8476 flight status page for this flight to view local times or setup timezone preferences in your user account.

Time Position Orientation Groundspeed Altitude Reporting Facility
EDT Latitude Longitude Course Direction KTS MPH feet Rate Location/Type
08:23AM 25.7954 -80.2901 345° North  Level Estimated
08:24AM 25.7954 -80.2901 318° Northwest  Level Estimated
08:25AM 25.7954 -80.2901 318° Northwest  Level Estimated
08:25AM 23.2581 -78.8806 318° Northwest 467 537 34,000  Level Miami Center
08:26AM 25.7954 -80.2901 318° Northwest  Level Estimated
08:26AM 23.3725 -78.9117 346° North 452 520 34,000  Level Miami Center
08:27AM 25.7954 -80.2901 318° Northwest  Level Estimated
08:27AM 23.4892 -78.9408 347° North 431 496 34,000  Level Miami Center
08:28AM 25.7954 -80.2901 318° Northwest  Level Estimated
08:28AM 23.6078 -78.9700 347° North 430 495 34,000  Level Miami Center
08:29AM 25.7954 -80.2901 318° Northwest  Level Estimated
08:29AM 23.7222 -78.9969 348° North 436 502 34,000  Level Miami Center
08:30AM 25.7954 -80.2901 318° Northwest  Level Estimated
08:30AM 23.8181 -79.0233 346° North 431 496 34,000  Level Miami Center
08:31AM 25.7954 -80.2901 318° Northwest  Level Estimated
08:31AM 23.9492 -79.0575 347° North 424 488 34,000  Level Miami Center
08:32AM 24.0700 -79.0892 347° North 433 498 34,000  Level Miami Center
08:33AM 24.1758 -79.1389 337° Northwest 423 487 34,000 -540 Level Miami Center
08:34AM 24.2878 -79.1956 335° Northwest 429 494 33,000 -1,620 Descending Miami Center
08:35AM 24.4081 -79.2481 338° Northwest 423 487 30,800 -2,160 Descending Miami Center
08:36AM 24.5136 -79.3025 335° Northwest 417 480 28,700 -2,040 Descending Miami Center
08:37AM 24.6175 -79.3528 336° Northwest 412 474 26,800 -1,920 Descending Miami Center
08:38AM 24.7169 -79.4028 335° Northwest 399 459 24,900 -1,860 Descending Miami Center
08:39AM 24.8164 -79.4506 336° Northwest 393 452 23,100 -1,860 Descending Miami Center
08:40AM 24.9136 -79.4961 337° Northwest 388 447 21,200 -2,100 Descending Miami Center
08:41AM 25.0111 -79.5439 336° Northwest 383 441 18,900 -2,100 Descending Miami Center
08:42AM 25.1106 -79.5922 336° Northwest 383 441 17,100 -1,860 Descending Miami Center
08:43AM 25.2058 -79.6378 337° Northwest 378 435 15,200 -1,860 Descending Miami Center
08:44AM 25.2967 -79.6814 337° Northwest 367 422 13,400 -1,800 Descending Miami Center
08:45AM 25.3444 -79.7100 332° Northwest 354 407 12,500 -1,440 Descending Miami Center
08:45AM 25.3836 -79.7247 341° North 357 411 12,000 -660 Descending Miami Center
08:46AM 25.4019 -79.7528 306° West 317 365 12,000  Level Miami Center
08:46AM 25.4428 -79.7975 315° West 319 367 12,000  Level Miami Center
08:47AM 25.4547 -79.8322 291° West 313 360 12,000 -120 Level Miami Center
08:47AM 25.4914 -79.8769 312° West 314 361 11,900  Descending Miami Center
08:48AM 25.5056 -79.9047 299° West 293 337 12,000 60 Climbing Miami Center
08:48AM 25.5381 -79.9472 310° West 302 348 12,000  Level Miami Center
08:49AM 25.5542 -79.9775 301° West 278 320 12,000  Level Miami Center
08:49AM 25.5825 -80.0150 310° West 289 333 12,000  Level Miami Center
08:50AM 25.6047 -80.0569 300° West 279 321 12,000 -300 Level Miami Center
08:50AM 25.6250 -80.0806 314° West 289 333 11,700 -1,380 Descending Miami Center
08:51AM 25.6492 -80.1228 302° West 277 319 10,600 -1,620 Descending Miami Center
08:51AM 25.6653 -80.1508 303° West 284 327 10,100 -660 Descending Miami Center
08:52AM 25.6725 -80.1972 280° West 265 305 10,000 -120 Descending Miami Center
08:52AM 25.6864 -80.2275 297° West 271 312 10,000  Level Miami Center
08:53AM 25.6939 -80.2714 281° West 246 283 10,000 -840 Level Miami Center
08:53AM 25.7056 -80.2994 295° West 257 296 9,200 -2,100 Descending Miami Center
08:54AM 25.7042 -80.3572 268° West 259 298 7,700 -2,220 Descending Miami Center
08:54AM 25.7058 -80.3778 275° West 245 282 7,000 -1,980 Descending Miami Center
08:55AM 25.6983 -80.4353 262° West 247 284 5,700 -2,160 Descending Miami Center
08:56AM 25.6944 -80.5044 266° West 247 284 3,800 -1,380 Descending Miami Center
08:57AM 25.7331 -80.5469 315° West 194 223 3,000 -420 Descending Miami Center
08:58AM 25.7714 -80.5158 36° Northeast 198 228 3,000 -360 Level Miami Center
08:59AM 25.7772 -80.4492 84° East 195 224 2,300 -780 Descending Miami Center
09:00AM 25.7828 -80.3939 84° East 170 196 1,400 -840 Descending Miami Center
09:01AM 25.7819 -80.3456 91° East 159 183 600 -840 Descending Miami Center
09:03AM 25.7833 -80.2833 90° East  Level FlightAware Approximate